Aviation Digital Data Service (ADDS)

Output produced by METARs form (0434 UTC 03 September 2014)
found at http://aviationweather.gov/adds/metars/
 
KHKY 030345Z 0304/0324 20004KT P6SM VCSH BKN045 BKN120 
     TEMPO 0304/0306 VRB15G25KT 5SM -TSRA BR SCT015 BKN030CB 
     FM030700 00000KT 6SM BR FEW050 BKN200 
     FM031300 VRB04KT P6SM SCT050 BKN250 
     FM031800 26005KT P6SM SCT045 BKN250 
     PROB30 0319/0323 4SM TSRA BKN035CB